Time;durP1;ratioP1;P1;durP2;ratioP2;P2;SDS_P1;SDS_P2;PMS_P1;PMS_P2;Temp;Humidity;BMP_temperature;BMP_pressure;BME280_temperature;BME280_humidity;BME280_pressure;Samples;Min_cycle;Max_cycle;Signal;HPM_P1;HPM_P2
2022/09/19 00:01:13;;;;;;;6.47;2.37;;;10.20;99.90;9.70;99103;;;;595459;242;24071;-76
2022/09/19 00:03:44;;;;;;;4.67;2.17;;;10.20;99.90;9.60;99093;;;;594889;242;24078;-75
2022/09/19 00:06:12;;;;;;;5.97;2.00;;;10.20;99.90;9.60;99096;;;;585635;242;24139;-76
2022/09/19 00:08:39;;;;;;;6.13;1.87;;;10.20;99.90;9.60;99093;;;;585010;242;24079;-78
2022/09/19 00:11:06;;;;;;;5.07;2.17;;;10.20;99.90;9.60;99101;;;;585246;242;24123;-77
2022/09/19 00:13:36;;;;;;;3.43;1.60;;;10.10;99.90;9.50;99089;;;;583151;244;24132;-74
2022/09/19 00:16:04;;;;;;;2.53;1.77;;;10.10;99.90;9.50;99089;;;;582525;240;24067;-74
2022/09/19 00:18:29;;;;;;;3.83;2.23;;;10.00;99.90;9.40;99087;;;;585498;242;24085;-72
2022/09/19 00:20:57;;;;;;;4.43;2.33;;;10.00;99.90;9.40;99085;;;;585639;242;24051;-72
2022/09/19 00:26:11;;;;;;;4.10;1.97;;;9.90;99.90;9.30;99087;;;;593365;242;24101;-74
2022/09/19 00:28:42;;;;;;;5.13;2.40;;;9.90;99.90;9.30;99082;;;;587626;242;35166;-73
2022/09/19 00:31:07;;;;;;;2.50;2.10;;;9.80;99.90;9.30;99080;;;;584944;242;25168;-73
2022/09/19 00:33:35;;;;;;;6.23;2.27;;;9.90;99.90;9.30;99086;;;;593948;242;24090;-72
2022/09/19 00:36:03;;;;;;;4.97;2.30;;;9.80;99.90;9.30;99086;;;;594004;238;24111;-75
2022/09/19 00:38:33;;;;;;;6.60;2.17;;;9.80;99.90;9.30;99084;;;;594255;242;24071;-73
2022/09/19 00:40:59;;;;;;;6.07;1.90;;;9.90;99.90;9.30;99083;;;;585201;242;24059;-73
2022/09/19 00:43:55;;;;;;;7.97;1.93;;;9.80;99.90;9.30;99077;;;;584833;242;24083;-73
2022/09/19 00:46:25;;;;;;;4.67;2.03;;;9.90;99.90;9.30;99083;;;;584009;242;24087;-74
2022/09/19 00:49:02;;;;;;;3.20;2.00;;;9.90;99.90;9.40;99093;;;;594164;242;24129;-74
2022/09/19 00:51:33;;;;;;;4.47;2.03;;;9.80;99.90;9.40;99084;;;;592928;240;24093;-74
2022/09/19 00:54:01;;;;;;;2.73;1.90;;;9.90;99.90;9.40;99086;;;;593760;242;24115;-73
2022/09/19 00:56:28;;;;;;;2.63;1.87;;;9.90;99.90;9.40;99087;;;;584496;242;25137;-76
2022/09/19 00:58:57;;;;;;;2.77;1.80;;;10.00;99.90;9.50;99091;;;;584475;242;24097;-73
2022/09/19 01:01:26;;;;;;;5.43;2.40;;;10.00;99.90;9.50;99080;;;;584205;242;24140;-72
2022/09/19 01:03:55;;;;;;;4.57;1.80;;;10.00;99.90;9.50;99083;;;;593974;242;24086;-72
2022/09/19 01:06:59;;;;;;;4.40;1.70;;;10.00;99.90;9.50;99069;;;;585513;242;24062;-74
2022/09/19 01:09:48;;;;;;;4.60;2.50;;;10.00;99.90;9.50;99074;;;;585331;242;24083;-75
2022/09/19 01:12:53;;;;;;;5.80;1.80;;;10.10;99.90;9.50;99077;;;;584727;242;24109;-73
2022/09/19 01:16:06;;;;;;;2.77;2.20;;;10.10;99.90;9.50;99081;;;;578044;245;24099;-73
2022/09/19 01:18:42;;;;;;;1.87;1.57;;;10.10;99.90;9.50;99085;;;;581250;245;24085;-73
2022/09/19 01:24:08;;;;;;;7.03;2.37;;;10.10;99.90;9.50;99071;;;;592196;242;24074;-73
2022/09/19 01:27:12;;;;;;;2.90;2.03;;;10.10;99.90;9.50;99083;;;;580241;245;24058;-72
2022/09/19 01:29:43;;;;;;;1.80;1.70;;;10.10;99.90;9.50;99092;;;;580624;244;24070;-73
2022/09/19 01:32:11;;;;;;;2.07;1.97;;;10.00;99.90;9.50;99095;;;;587171;244;24109;-74
2022/09/19 01:34:42;;;;;;;3.87;1.67;;;10.00;99.90;9.50;99096;;;;587496;244;24176;-73
2022/09/19 01:37:16;;;;;;;6.17;2.00;;;10.00;99.90;9.40;99088;;;;587656;244;24073;-72
2022/09/19 01:39:43;;;;;;;3.50;1.80;;;10.00;99.90;9.40;99084;;;;579577;244;24305;-72
2022/09/19 01:42:18;;;;;;;2.73;1.93;;;10.00;99.90;9.40;99091;;;;587952;243;24106;-73
2022/09/19 01:44:42;;;;;;;3.80;1.77;;;10.00;99.90;9.40;99104;;;;575935;244;24105;-72
2022/09/19 01:47:43;;;;;;;1.73;1.63;;;10.00;99.90;9.40;99102;;;;580355;244;24138;-72
2022/09/19 01:50:35;;;;;;;3.57;1.87;;;10.00;99.90;9.40;99099;;;;584814;241;24071;-78
2022/09/19 01:53:18;;;;;;;2.10;1.83;;;10.00;99.90;9.40;99099;;;;579534;245;24046;-74
2022/09/19 01:55:58;;;;;;;4.90;2.17;;;10.00;99.90;9.40;99109;;;;576907;244;24058;-75
2022/09/19 01:58:43;;;;;;;3.57;2.20;;;10.00;99.90;9.40;99104;;;;580545;244;24089;-72
2022/09/19 02:01:26;;;;;;;3.70;1.93;;;10.00;99.90;9.50;99106;;;;585659;242;24068;-77
2022/09/19 02:04:01;;;;;;;2.67;1.40;;;10.00;99.90;9.50;99121;;;;593757;242;24122;-79
2022/09/19 02:06:48;;;;;;;2.47;1.83;;;10.00;99.90;9.50;99118;;;;591823;241;24077;-80
2022/09/19 02:09:15;;;;;;;3.83;2.00;;;10.00;99.90;9.50;99115;;;;591957;242;24170;-77
2022/09/19 02:11:43;;;;;;;3.33;1.70;;;10.00;99.90;9.50;99117;;;;584834;240;24073;-74
2022/09/19 02:14:16;;;;;;;5.40;2.00;;;10.00;99.90;9.50;99117;;;;593402;242;26271;-73
2022/09/19 02:16:45;;;;;;;3.13;1.70;;;10.00;99.90;9.50;99113;;;;593355;238;24064;-73
2022/09/19 02:19:17;;;;;;;4.70;2.27;;;10.00;99.90;9.50;99123;;;;593912;241;24062;-73
2022/09/19 02:21:52;;;;;;;2.50;2.07;;;10.00;99.90;9.50;99121;;;;581302;247;24205;-76
2022/09/19 02:24:20;;;;;;;2.40;1.63;;;10.00;99.90;9.50;99126;;;;581531;244;24018;-80
2022/09/19 02:26:52;;;;;;;1.73;1.63;;;10.00;99.90;9.50;99124;;;;581277;247;24025;-74
2022/09/19 02:29:20;;;;;;;3.77;1.90;;;10.00;99.90;9.50;99114;;;;578627;244;24074;-73
2022/09/19 02:31:46;;;;;;;3.43;2.20;;;10.00;99.90;9.50;99117;;;;569799;247;24062;-73
2022/09/19 02:34:15;;;;;;;3.93;2.13;;;10.00;99.90;9.50;99119;;;;588160;244;24095;-75
2022/09/19 02:37:09;;;;;;;4.83;2.10;;;10.00;99.90;9.50;99122;;;;579197;244;24117;-75
2022/09/19 02:39:55;;;;;;;1.90;1.80;;;10.00;99.90;9.50;99120;;;;584854;241;24062;-73
2022/09/19 02:42:35;;;;;;;3.10;1.80;;;10.00;99.90;9.50;99128;;;;594254;238;24126;-72
2022/09/19 02:45:32;;;;;;;3.50;2.00;;;10.00;99.90;9.50;99115;;;;580149;242;35046;-72
2022/09/19 02:48:21;;;;;;;2.77;1.87;;;10.10;99.90;9.50;99120;;;;593845;241;24062;-74
2022/09/19 02:50:59;;;;;;;2.27;1.53;;;10.00;99.90;9.50;99121;;;;585604;242;24094;-73
2022/09/19 02:53:26;;;;;;;1.57;1.50;;;10.00;99.90;9.50;99122;;;;592553;239;24090;-74
2022/09/19 02:55:55;;;;;;;2.33;1.30;;;10.10;99.90;9.50;99115;;;;585684;240;24081;-72
2022/09/19 02:58:22;;;;;;;1.97;1.37;;;10.10;99.90;9.50;99107;;;;595069;241;24107;-72
2022/09/19 03:00:53;;;;;;;2.87;1.33;;;10.10;99.90;9.50;99113;;;;595047;238;24095;-73
2022/09/19 03:06:14;;;;;;;1.47;1.30;;;10.10;99.90;9.50;99109;;;;593226;242;24111;-75
2022/09/19 03:08:45;;;;;;;2.00;1.37;;;10.10;99.90;9.50;99101;;;;594424;242;24091;-71
2022/09/19 03:11:13;;;;;;;1.17;0.97;;;10.10;99.90;9.50;99106;;;;593592;241;24063;-74
2022/09/19 03:13:40;;;;;;;1.73;1.27;;;10.00;99.90;9.50;99104;;;;588254;242;24065;-73
2022/09/19 03:16:14;;;;;;;1.87;0.83;;;10.00;99.90;9.50;99100;;;;587729;244;24074;-74
2022/09/19 03:18:41;;;;;;;2.10;1.23;;;10.00;99.90;9.50;99103;;;;579823;242;24096;-72
2022/09/19 03:21:12;;;;;;;4.17;1.50;;;10.00;99.90;9.40;99105;;;;595063;241;24082;-74
2022/09/19 03:23:43;;;;;;;1.37;0.80;;;10.00;99.90;9.50;99102;;;;591292;240;24067;-75
2022/09/19 03:26:10;;;;;;;2.63;1.30;;;10.00;99.90;9.40;99092;;;;572792;247;23991;-73
2022/09/19 03:28:38;;;;;;;0.90;0.90;;;10.00;99.90;9.40;99096;;;;575639;249;24111;-77
2022/09/19 03:31:09;;;;;;;1.87;1.30;;;10.00;99.90;9.50;99087;;;;581287;244;24108;-77
2022/09/19 03:33:39;;;;;;;2.03;1.10;;;10.00;99.90;9.40;99094;;;;581221;244;24134;-73
2022/09/19 03:36:08;;;;;;;5.10;1.40;;;10.00;99.90;9.40;99095;;;;583715;242;24059;-76
2022/09/19 03:38:45;;;;;;;1.60;1.17;;;10.00;99.90;9.40;99089;;;;593093;242;24136;-72
2022/09/19 03:41:09;;;;;;;1.97;1.23;;;10.00;99.90;9.40;99096;;;;594626;242;24064;-73
2022/09/19 03:43:37;;;;;;;2.00;1.50;;;9.90;99.90;9.40;99091;;;;594181;238;24070;-73
2022/09/19 03:46:05;;;;;;;1.43;1.27;;;9.90;99.90;9.40;99096;;;;585485;242;24165;-74
2022/09/19 03:48:35;;;;;;;3.83;1.43;;;9.90;99.90;9.40;99102;;;;594239;242;24097;-73
2022/09/19 03:51:01;;;;;;;2.93;1.60;;;9.90;99.90;9.40;99101;;;;594406;239;24046;-74
2022/09/19 03:53:30;;;;;;;3.90;1.83;;;9.90;99.90;9.40;99110;;;;595478;241;24091;-74
2022/09/19 03:56:01;;;;;;;3.43;1.60;;;9.90;99.90;9.40;99101;;;;595009;238;24112;-73
2022/09/19 03:58:28;;;;;;;3.57;1.67;;;9.90;99.90;9.40;99107;;;;595106;239;24097;-75
2022/09/19 04:00:53;;;;;;;2.20;1.60;;;9.90;99.90;9.40;99103;;;;594044;238;24090;-74
2022/09/19 04:03:23;;;;;;;1.60;1.50;;;9.90;99.90;9.40;99104;;;;594212;242;24087;-73
2022/09/19 04:05:49;;;;;;;2.33;1.37;;;10.00;99.90;9.40;99103;;;;594136;239;24101;-74
2022/09/19 04:08:17;;;;;;;3.67;1.27;;;10.00;99.90;9.50;99107;;;;585039;242;24074;-75
2022/09/19 04:10:45;;;;;;;2.37;1.30;;;10.00;99.90;9.50;99105;;;;585177;242;24068;-75
2022/09/19 04:13:14;;;;;;;1.17;0.90;;;10.00;99.90;9.50;99107;;;;593868;242;24083;-74
2022/09/19 04:15:42;;;;;;;1.77;1.27;;;10.00;99.90;9.50;99108;;;;584150;242;24048;-73
2022/09/19 04:18:10;;;;;;;1.37;1.27;;;10.10;99.90;9.50;99111;;;;593908;242;24042;-75
2022/09/19 04:20:38;;;;;;;1.60;1.20;;;10.10;99.90;9.50;99108;;;;593650;242;24110;-73
2022/09/19 04:23:05;;;;;;;1.40;1.30;;;10.10;99.90;9.50;99113;;;;593968;238;24090;-74
2022/09/19 04:25:34;;;;;;;2.30;0.87;;;10.10;99.90;9.50;99118;;;;584650;242;24091;-73
2022/09/19 04:28:04;;;;;;;0.80;0.80;;;10.10;99.90;9.50;99125;;;;584262;242;24071;-73
2022/09/19 04:30:35;;;;;;;2.17;1.20;;;10.10;99.90;9.60;99125;;;;593434;242;24083;-73
2022/09/19 04:33:03;;;;;;;2.50;1.33;;;10.10;99.90;9.60;99131;;;;584276;242;24056;-72
2022/09/19 04:35:36;;;;;;;1.40;1.30;;;10.10;99.90;9.60;99137;;;;583895;242;24084;-72
2022/09/19 04:38:04;;;;;;;0.77;0.77;;;10.20;99.90;9.60;99139;;;;591239;242;24056;-72
2022/09/19 04:40:32;;;;;;;1.23;1.13;;;10.20;99.90;9.60;99134;;;;593686;241;24069;-72
2022/09/19 04:43:00;;;;;;;1.73;1.00;;;10.20;99.90;9.70;99145;;;;588843;238;24089;-72
2022/09/19 04:45:29;;;;;;;2.10;0.97;;;10.20;99.90;9.70;99144;;;;589604;243;24089;-73
2022/09/19 04:47:58;;;;;;;1.30;1.20;;;10.20;99.90;9.70;99144;;;;590099;242;24090;-72
2022/09/19 04:50:24;;;;;;;1.27;1.17;;;10.20;99.90;9.70;99151;;;;593646;238;24057;-73
2022/09/19 04:52:53;;;;;;;1.07;0.97;;;10.20;99.90;9.70;99153;;;;593920;242;24091;-73
2022/09/19 04:55:20;;;;;;;0.90;0.90;;;10.30;99.90;9.70;99157;;;;593744;242;24052;-73
2022/09/19 04:57:47;;;;;;;1.20;1.17;;;10.30;99.90;9.80;99161;;;;593871;242;24073;-77
2022/09/19 05:00:15;;;;;;;1.20;1.10;;;10.30;99.90;9.80;99173;;;;584635;242;24067;-73
2022/09/19 05:02:44;;;;;;;1.17;1.07;;;10.30;99.90;9.80;99175;;;;592434;238;24097;-73
2022/09/19 05:05:11;;;;;;;1.03;0.93;;;10.30;99.90;9.80;99169;;;;585909;242;24100;-72
2022/09/19 05:07:40;;;;;;;0.90;0.90;;;10.40;99.90;9.90;99174;;;;598014;238;24105;-72
2022/09/19 05:10:11;;;;;;;1.10;1.00;;;10.40;99.90;9.90;99174;;;;597922;238;24125;-72
2022/09/19 05:12:36;;;;;;;1.40;1.20;;;10.40;99.90;9.90;99179;;;;593136;237;24061;-74
2022/09/19 05:15:04;;;;;;;1.30;1.20;;;10.50;99.90;9.90;99180;;;;598597;237;24088;-72
2022/09/19 05:17:32;;;;;;;2.30;1.07;;;10.40;99.90;9.90;99174;;;;586781;241;24090;-72
2022/09/19 05:20:00;;;;;;;1.43;1.30;;;10.50;99.90;9.90;99179;;;;587482;241;24102;-73
2022/09/19 05:22:28;;;;;;;1.27;1.20;;;10.50;99.90;9.90;99169;;;;586286;242;28392;-75
2022/09/19 05:25:00;;;;;;;2.17;1.23;;;10.50;99.90;9.90;99180;;;;573599;244;24105;-77
2022/09/19 05:27:24;;;;;;;3.27;1.40;;;10.50;99.90;10.00;99182;;;;591234;238;24024;-72
2022/09/19 05:29:52;;;;;;;0.90;0.83;;;10.50;99.90;10.00;99172;;;;588020;242;24077;-72
2022/09/19 05:32:20;;;;;;;2.20;1.43;;;10.50;99.90;10.00;99175;;;;590574;242;24055;-72
2022/09/19 05:34:48;;;;;;;0.90;0.90;;;10.60;99.90;10.00;99173;;;;587951;241;24073;-74
2022/09/19 05:37:16;;;;;;;1.00;1.00;;;10.60;99.90;10.10;99180;;;;581649;242;24070;-72
2022/09/19 05:39:43;;;;;;;1.17;0.93;;;10.60;99.90;10.10;99180;;;;568281;249;24193;-73
2022/09/19 05:42:11;;;;;;;1.77;1.10;;;10.60;99.90;10.10;99176;;;;580277;242;24116;-72
2022/09/19 05:44:39;;;;;;;1.13;0.73;;;10.70;99.90;10.20;99187;;;;579152;244;25154;-72
2022/09/19 05:47:07;;;;;;;1.73;0.93;;;10.70;99.90;10.30;99191;;;;588340;241;24080;-74
2022/09/19 05:49:36;;;;;;;1.43;1.00;;;10.80;99.90;10.30;99184;;;;592839;241;24065;-73
2022/09/19 05:53:52;;;;;;;1.50;1.10;;;10.80;99.90;10.40;99184;;;;584667;242;24072;-74
2022/09/19 05:54:31;;;;;;;2.20;1.30;;;10.90;99.90;10.40;99192;;;;583118;245;24086;-73
2022/09/19 05:57:00;;;;;;;3.03;1.37;;;11.00;99.90;10.40;99191;;;;584931;241;24100;-72
2022/09/19 05:59:27;;;;;;;3.90;1.10;;;11.00;99.90;10.50;99195;;;;579973;246;24097;-72
2022/09/19 06:01:55;;;;;;;2.63;1.20;;;11.00;99.90;10.50;99196;;;;589937;238;24139;-74
2022/09/19 06:04:25;;;;;;;1.57;1.13;;;11.10;99.90;10.60;99204;;;;591014;242;24060;-72
2022/09/19 06:06:50;;;;;;;1.17;1.10;;;11.10;99.90;10.60;99204;;;;595477;238;23993;-72
2022/09/19 06:09:18;;;;;;;0.93;0.93;;;11.20;99.90;10.70;99197;;;;602907;238;24159;-73
2022/09/19 06:11:47;;;;;;;2.80;0.90;;;11.30;99.90;10.70;99191;;;;599015;238;24021;-73
2022/09/19 06:14:15;;;;;;;2.10;1.00;;;11.20;99.90;10.80;99193;;;;603792;236;24235;-75
2022/09/19 06:16:43;;;;;;;3.30;1.20;;;11.30;99.90;10.80;99206;;;;604223;235;24068;-73
2022/09/19 06:19:11;;;;;;;2.70;1.50;;;11.40;99.90;10.90;99206;;;;603751;237;24042;-75
2022/09/19 06:21:39;;;;;;;1.67;1.50;;;11.50;99.90;11.00;99209;;;;594303;238;24052;-74
2022/09/19 06:24:09;;;;;;;3.97;1.40;;;11.50;99.90;11.00;99214;;;;603484;238;24047;-73
2022/09/19 06:26:36;;;;;;;1.53;1.33;;;11.60;99.90;11.20;99212;;;;603602;234;24066;-74
2022/09/19 06:29:06;;;;;;;1.73;1.23;;;11.90;99.90;11.40;99232;;;;599687;238;24068;-73
2022/09/19 06:31:35;;;;;;;3.70;1.30;;;11.90;99.90;11.70;99229;;;;603410;238;24171;-74
2022/09/19 06:34:01;;;;;;;2.10;1.30;;;12.10;99.90;12.00;99225;;;;603232;238;24090;-70
2022/09/19 06:36:29;;;;;;;2.47;1.33;;;12.40;99.90;12.30;99235;;;;603385;238;24029;-71
2022/09/19 06:38:57;;;;;;;1.37;1.00;;;13.00;99.90;12.50;99232;;;;603437;238;24025;-72
2022/09/19 06:41:25;;;;;;;2.17;0.80;;;12.90;99.90;12.80;99240;;;;602676;236;24020;-73
2022/09/19 06:43:53;;;;;;;1.00;1.00;;;13.30;99.90;13.10;99236;;;;592915;241;24046;-72
2022/09/19 06:46:21;;;;;;;3.63;1.23;;;13.50;99.90;13.30;99232;;;;585945;243;24086;-74
2022/09/19 06:48:49;;;;;;;1.90;1.20;;;13.80;99.90;13.60;99234;;;;587393;242;24043;-73
2022/09/19 06:51:17;;;;;;;1.30;1.20;;;14.00;99.90;14.10;99242;;;;590200;239;24013;-73
2022/09/19 06:53:47;;;;;;;1.23;1.13;;;14.50;99.90;14.60;99254;;;;587457;240;24119;-73
2022/09/19 06:56:13;;;;;;;2.37;1.00;;;14.90;99.90;15.00;99252;;;;585039;242;24049;-76
2022/09/19 06:58:41;;;;;;;1.83;1.37;;;15.30;99.90;15.40;99253;;;;587959;242;24124;-72
2022/09/19 07:01:09;;;;;;;1.40;1.30;;;15.70;99.90;16.00;99253;;;;586159;242;24056;-74
2022/09/19 07:03:36;;;;;;;1.07;1.07;;;16.20;99.90;16.80;99263;;;;585861;241;24104;-76
2022/09/19 07:06:07;;;;;;;2.57;1.53;;;17.00;99.90;17.50;99263;;;;585702;242;24082;-75
2022/09/19 07:08:32;;;;;;;2.43;1.60;;;17.70;99.90;18.00;99258;;;;579612;242;24104;-77
2022/09/19 07:11:00;;;;;;;1.50;1.33;;;18.20;99.90;18.40;99268;;;;582557;242;24165;-75
2022/09/19 07:13:28;;;;;;;1.43;1.20;;;18.70;99.90;18.70;99272;;;;586344;242;24078;-74
2022/09/19 07:15:56;;;;;;;1.20;1.20;;;19.00;99.90;19.20;99283;;;;586264;242;24048;-81
2022/09/19 07:18:24;;;;;;;1.20;1.10;;;19.50;99.90;19.80;99282;;;;582466;242;24065;-78
2022/09/19 07:20:52;;;;;;;0.90;0.87;;;20.00;99.90;20.20;99280;;;;584911;240;24106;-75
2022/09/19 07:23:20;;;;;;;2.30;1.35;;;20.40;99.90;21.20;99289;;;;576811;244;35152;-82
2022/09/19 07:25:48;;;;;;;1.90;1.17;;;21.10;99.90;22.20;99296;;;;575096;243;24034;-79
2022/09/19 07:28:16;;;;;;;1.47;1.37;;;22.10;99.90;23.50;99289;;;;582527;246;24085;-83
2022/09/19 07:30:43;;;;;;;1.23;1.20;;;23.40;99.90;24.90;99299;;;;561298;252;24156;-83
2022/09/19 07:33:11;;;;;;;3.10;1.30;;;24.80;98.30;25.80;99310;;;;577651;245;23169;-75
2022/09/19 07:35:42;;;;;;;1.53;1.43;;;25.90;94.60;26.40;99304;;;;576465;246;23072;-75
2022/09/19 07:38:13;;;;;;;2.20;1.20;;;26.60;90.40;27.00;99300;;;;583734;243;23069;-77
2022/09/19 07:40:44;;;;;;;2.07;1.03;;;27.20;86.10;27.80;99311;;;;583431;242;24065;-75
2022/09/19 07:43:12;;;;;;;1.03;0.97;;;27.90;79.20;28.40;99309;;;;575661;246;23056;-73
2022/09/19 07:45:39;;;;;;;2.27;1.30;;;28.60;77.10;29.60;99321;;;;574494;246;23114;-76
2022/09/19 07:48:07;;;;;;;1.10;1.10;;;29.70;72.90;29.20;99324;;;;582450;243;23128;-76
2022/09/19 07:50:35;;;;;;;1.83;1.35;;;29.70;68.80;27.90;99329;;;;572216;246;23049;-76
2022/09/19 07:53:11;;;;;;;1.80;1.30;;;28.80;69.30;26.80;99322;;;;576221;246;23078;-75
2022/09/19 07:55:41;;;;;;;3.17;1.17;;;27.80;70.40;25.80;99332;;;;585047;242;23102;-76
2022/09/19 07:58:07;;;;;;;2.53;1.07;;;26.70;72.60;25.20;99334;;;;579735;245;24202;-77
2022/09/19 08:00:36;;;;;;;2.77;1.03;;;26.00;74.70;25.00;99335;;;;574947;245;23091;-76
2022/09/19 08:03:03;;;;;;;1.23;1.00;;;25.50;76.50;26.30;99338;;;;575017;245;23103;-76
2022/09/19 08:05:34;;;;;;;1.03;1.03;;;26.30;76.50;28.00;99342;;;;585017;241;23058;-76
2022/09/19 08:08:05;;;;;;;1.83;1.20;;;27.90;73.00;29.00;99340;;;;581878;243;23083;-79
2022/09/19 08:10:30;;;;;;;0.80;0.80;;;29.00;68.30;29.20;99342;;;;581772;242;23113;-76
2022/09/19 08:13:02;;;;;;;1.75;1.15;;;29.40;66.30;29.70;99336;;;;577493;242;25192;-76
2022/09/19 08:15:33;;;;;;;1.45;0.88;;;29.90;64.70;29.90;99346;;;;596647;236;23097;-76
2022/09/19 08:18:01;;;;;;;1.20;1.10;;;30.20;63.40;29.80;99354;;;;601579;236;23034;-76
2022/09/19 08:20:29;;;;;;;4.65;3.92;;;30.30;61.70;29.80;99349;;;;604378;236;23060;-75
2022/09/19 08:23:04;;;;;;;4.95;2.45;;;30.10;61.20;29.60;99358;;;;595493;236;24090;-81
2022/09/19 08:25:32;;;;;;;3.42;2.80;;;30.10;61.20;29.90;99359;;;;598435;236;34975;-77
2022/09/19 08:28:04;;;;;;;5.30;3.65;;;30.10;61.20;29.80;99365;;;;594394;241;23064;-82
2022/09/19 08:30:28;;;;;;;6.22;4.55;;;30.20;61.10;30.10;99373;;;;592900;238;23058;-77
2022/09/19 08:33:00;;;;;;;3.12;2.22;;;30.30;60.40;29.80;99374;;;;604936;238;23086;-80
2022/09/19 08:35:25;;;;;;;0.77;0.77;;;30.30;60.40;29.30;99377;;;;594861;238;23044;-86
2022/09/19 08:38:02;;;;;;;1.05;1.05;;;29.90;59.80;28.60;99374;;;;608209;235;23078;-85
2022/09/19 08:40:43;;;;;;;2.42;1.45;;;29.30;61.10;28.80;99379;;;;604795;236;23036;-77
2022/09/19 08:43:19;;;;;;;2.65;2.45;;;29.20;62.30;29.40;99374;;;;602105;237;24023;-84
2022/09/19 08:46:14;;;;;;;4.22;3.35;;;29.70;61.20;29.20;99385;;;;596734;237;23053;-85
2022/09/19 08:49:10;;;;;;;2.33;1.40;;;29.20;61.10;28.40;99379;;;;597792;236;24031;-84
2022/09/19 08:51:56;;;;;;;0.77;0.77;;;29.10;61.00;27.60;99387;;;;598750;236;24035;-84
2022/09/19 08:54:33;;;;;;;0.82;0.82;;;28.30;62.70;28.80;99387;;;;597930;236;23093;-82
2022/09/19 08:57:01;;;;;;;2.15;1.48;;;29.00;63.90;30.60;99386;;;;597332;236;24102;-74
2022/09/19 08:59:39;;;;;;;1.00;1.00;;;31.50;58.20;31.10;99392;;;;589530;242;23004;-78
2022/09/19 09:02:40;;;;;;;3.33;1.45;;;31.50;58.20;30.40;99393;;;;580701;244;24090;-75
2022/09/19 09:05:06;;;;;;;1.10;1.10;;;31.20;57.30;29.40;99393;;;;578680;240;23066;-78
2022/09/19 09:08:05;;;;;;;0.90;0.90;;;30.30;58.30;29.00;99394;;;;579894;243;23084;-77
2022/09/19 09:10:35;;;;;;;0.65;0.57;;;29.80;58.70;29.00;99393;;;;580350;245;24277;-78
2022/09/19 09:13:09;;;;;;;1.25;0.80;;;29.50;59.70;29.10;99402;;;;583788;239;23222;-77
2022/09/19 09:15:58;;;;;;;0.80;0.80;;;29.60;59.40;29.10;99409;;;;581964;241;23107;-76
2022/09/19 09:18:53;;;;;;;1.05;0.80;;;29.60;59.60;28.50;99400;;;;589409;241;23169;-76
2022/09/19 09:21:29;;;;;;;2.47;0.60;;;29.30;59.50;27.50;99417;;;;590021;241;23116;-75
2022/09/19 09:24:16;;;;;;;0.70;0.70;;;28.40;60.30;26.30;99408;;;;577141;244;23094;-77
2022/09/19 09:26:43;;;;;;;0.57;0.50;;;27.30;62.70;25.20;99412;;;;585291;242;23106;-76
2022/09/19 09:29:17;;;;;;;0.50;0.50;;;26.30;64.40;24.30;99415;;;;585779;242;23065;-76
2022/09/19 09:31:48;;;;;;;0.60;0.60;;;25.30;65.70;23.60;99409;;;;585059;241;23139;-79
2022/09/19 09:34:31;;;;;;;0.47;0.47;;;24.50;67.60;23.70;99411;;;;584351;242;23106;-75
2022/09/19 09:37:20;;;;;;;0.40;0.40;;;24.40;68.10;24.20;99408;;;;575924;240;23095;-75
2022/09/19 09:39:59;;;;;;;0.50;0.50;;;24.90;67.50;24.80;99418;;;;592614;238;23107;-77
2022/09/19 09:42:19;;;;;;;0.40;0.40;;;25.80;64.90;25.40;99422;;;;593326;240;24102;-78
2022/09/19 09:44:58;;;;;;;1.70;0.30;;;26.50;62.90;25.90;99415;;;;586025;241;23082;-78
2022/09/19 09:47:48;;;;;;;0.50;0.50;;;27.20;60.60;26.50;99428;;;;579314;241;24076;-76
2022/09/19 09:50:33;;;;;;;0.53;0.53;;;27.90;59.70;26.90;99420;;;;586210;240;23129;-77
2022/09/19 09:53:04;;;;;;;0.30;0.30;;;29.20;58.60;27.50;99425;;;;586488;240;23108;-76
2022/09/19 10:05:26;;;;;;;0.30;0.30;;;31.30;55.50;30.30;99429;;;;592592;238;23043;-77
2022/09/19 10:08:02;;;;;;;1.67;0.68;;;32.20;52.90;29.30;99444;;;;588601;241;23179;-76
2022/09/19 10:10:30;;;;;;;0.60;0.50;;;31.60;59.20;26.20;99448;;;;581471;244;23104;-75
2022/09/19 10:13:25;;;;;;;0.57;0.57;;;29.00;60.10;24.20;99447;;;;576227;245;23073;-76
2022/09/19 10:15:50;;;;;;;1.10;0.70;;;26.60;63.70;22.80;99451;;;;579416;243;23118;-75
2022/09/19 10:18:19;;;;;;;1.27;0.60;;;24.70;69.00;21.90;99447;;;;580007;243;24197;-74
2022/09/19 10:20:51;;;;;;;0.47;0.47;;;23.40;73.20;21.30;99450;;;;588887;243;24124;-75
2022/09/19 10:23:23;;;;;;;0.50;0.50;;;22.50;75.60;20.80;99447;;;;578233;239;24046;-73
2022/09/19 10:26:01;;;;;;;0.60;0.43;;;21.70;79.00;20.50;99449;;;;565497;245;24243;-74
2022/09/19 10:28:41;;;;;;;0.40;0.40;;;21.00;83.70;20.50;99447;;;;561474;252;23090;-74
2022/09/19 10:31:06;;;;;;;0.50;0.50;;;21.00;83.70;20.70;99442;;;;562966;252;23112;-75
2022/09/19 10:33:43;;;;;;;0.30;0.30;;;21.10;85.10;20.80;99447;;;;579342;241;24177;-74
2022/09/19 10:36:25;;;;;;;0.63;0.40;;;21.20;86.00;20.80;99444;;;;582222;241;23091;-75
2022/09/19 10:38:54;;;;;;;0.20;0.20;;;21.20;86.00;20.80;99433;;;;583303;242;23108;-76
2022/09/19 10:41:22;;;;;;;0.40;0.40;;;21.20;85.00;20.70;99438;;;;592432;239;24058;-74
2022/09/19 10:43:51;;;;;;;0.30;0.30;;;21.20;85.60;20.70;99437;;;;592597;242;23096;-73
2022/09/19 10:46:36;;;;;;;0.63;0.33;;;21.10;85.50;20.70;99431;;;;582107;242;23144;-76
2022/09/19 10:49:05;;;;;;;1.07;0.50;;;21.10;86.20;20.60;99442;;;;582597;242;23065;-74
2022/09/19 10:51:33;;;;;;;0.40;0.40;;;20.80;86.90;20.40;99443;;;;581335;242;24106;-72
2022/09/19 10:54:01;;;;;;;0.30;0.30;;;20.80;86.80;20.10;99444;;;;581384;242;23181;-75
2022/09/19 10:56:29;;;;;;;1.40;0.20;;;20.60;88.50;19.80;99444;;;;584372;244;23131;-75
2022/09/19 10:59:03;;;;;;;0.50;0.50;;;20.00;89.00;19.60;99446;;;;592147;236;24184;-75
2022/09/19 11:01:34;;;;;;;0.43;0.43;;;20.00;89.00;19.40;99450;;;;584142;242;24078;-74
2022/09/19 11:04:18;;;;;;;0.53;0.40;;;19.90;88.70;19.10;99440;;;;584752;241;24072;-74
2022/09/19 11:07:01;;;;;;;0.63;0.40;;;19.60;89.20;18.80;99442;;;;591006;241;24048;-74
2022/09/19 11:09:28;;;;;;;0.30;0.30;;;19.30;88.80;18.70;99444;;;;580670;247;24129;-74
2022/09/19 11:12:05;;;;;;;0.33;0.33;;;19.20;90.10;18.90;99461;;;;572294;246;24042;-74
2022/09/19 11:14:43;;;;;;;1.90;0.50;;;19.30;90.70;19.20;99447;;;;561266;252;24121;-76
2022/09/19 11:17:35;;;;;;;1.47;0.40;;;19.60;90.30;19.30;99447;;;;562001;252;23261;-74
2022/09/19 11:20:29;;;;;;;0.37;0.37;;;19.80;89.20;19.20;99449;;;;583362;242;24174;-74
2022/09/19 11:23:28;;;;;;;0.30;0.30;;;19.70;89.50;19.00;99448;;;;583871;242;24121;-74
2022/09/19 11:26:38;;;;;;;0.27;0.27;;;19.60;89.80;18.80;99455;;;;586519;242;23106;-74
2022/09/19 11:29:53;;;;;;;0.37;0.30;;;19.20;89.80;18.70;99456;;;;582881;246;24011;-74
2022/09/19 11:32:35;;;;;;;0.37;0.37;;;19.20;89.70;18.60;99475;;;;577466;247;24034;-76
2022/09/19 11:35:31;;;;;;;1.13;0.30;;;19.10;91.10;18.00;99490;;;;576739;244;24044;-74
2022/09/19 11:38:19;;;;;;;3.60;0.50;;;17.90;98.70;17.20;99489;;;;577179;244;24092;-75
2022/09/19 11:41:24;;;;;;;0.50;0.50;;;17.80;98.60;16.60;99479;;;;574054;244;24062;-74
2022/09/19 11:44:20;;;;;;;1.57;0.50;;;17.30;99.90;16.20;99494;;;;576263;245;24090;-76
2022/09/19 11:47:00;;;;;;;0.50;0.50;;;16.80;99.90;16.00;99487;;;;587064;244;24107;-76
2022/09/19 11:49:32;;;;;;;1.77;0.67;;;16.30;99.90;15.90;99497;;;;574137;244;24068;-78
2022/09/19 11:52:17;;;;;;;1.33;0.70;;;16.30;99.90;15.70;99495;;;;576332;242;23113;-75
2022/09/19 11:55:15;;;;;;;0.80;0.80;;;16.20;99.90;15.60;99493;;;;585145;242;24053;-75
2022/09/19 11:57:50;;;;;;;1.37;0.70;;;16.10;99.90;15.50;99492;;;;594425;242;24115;-76
2022/09/19 12:00:20;;;;;;;2.00;0.80;;;16.00;99.90;15.60;99491;;;;585058;242;24041;-74
2022/09/19 12:02:58;;;;;;;2.63;1.23;;;16.10;99.90;15.90;99495;;;;584998;242;24104;-74
2022/09/19 12:05:31;;;;;;;0.97;0.80;;;16.30;99.90;16.20;99497;;;;585362;242;24068;-75
2022/09/19 12:08:08;;;;;;;3.30;1.20;;;16.60;99.90;16.50;99500;;;;579897;242;35099;-75